This is the latest recevied weather packets stored in our database for station/object WO5CID. If no packets are shown the sender has not sent any weather packets the latest 1 day(s).
| Time | Temp. | Humidity | Pressure | Rain* | Wind** | Luminosity | Snow |
|---|---|---|---|---|---|---|---|
| 1778032595 | 19.44° C | 66% | 1016.1 hPa | 0 mm | - | 0 W/m² | - |
| 1778032292 | 19.44° C | 67% | 1015.9 hPa | 0 mm | - | 0 W/m² | - |
| 1778031079 | 20° C | 65% | 1016 hPa | 0 mm | - | 0 W/m² | - |
| 1778030471 | 20° C | 63% | 1016 hPa | 0 mm | - | 0 W/m² | - |
| 1778030164 | 20° C | 63% | 1015.7 hPa | 0 mm | - | 0 W/m² | - |
| 1778029554 | 20.56° C | 61% | 1015.8 hPa | 0 mm | - | 0 W/m² | - |
| 1778028341 | 21.11° C | 57% | 1015.7 hPa | 0 mm | - | 0 W/m² | - |
| 1778027734 | 21.67° C | 56% | 1015.7 hPa | 0 mm | - | 0 W/m² | - |
| 1778026519 | 22.78° C | 53% | 1015.2 hPa | 0 mm | - | 1 W/m² | - |
| 1778026216 | 22.78° C | 52% | 1015.1 hPa | 0 mm | - | 1 W/m² | - |
| 1778025914 | 23.33° C | 51% | 1015 hPa | 0 mm | - | 3 W/m² | - |
| 1778025309 | 23.89° C | 50% | 1014.8 hPa | 0 mm | - | 7 W/m² | - |
| 1778023794 | 25° C | 50% | 1014.7 hPa | 0 mm | - | 21 W/m² | - |
| 1778022276 | 25.56° C | 47% | 1014.7 hPa | 0 mm | - | 50 W/m² | - |
| 1778020753 | 27.22° C | 46% | 1014.6 hPa | 0 mm | - | 63 W/m² | - |
| 1778018026 | 28.89° C | 42% | 1014.7 hPa | 0 mm | - | 300 W/m² | - |
| 1778017118 | 28.89° C | 40% | 1014.5 hPa | 0 mm | - | 226 W/m² | - |
| 1778016816 | 28.89° C | 40% | 1014.5 hPa | 0 mm | - | 356 W/m² | - |
| 1778011664 | 30° C | 42% | 1014.9 hPa | 0 mm | - | 627 W/m² | - |
| 1778011361 | 30.56° C | 39% | 1014.8 hPa | 0 mm | - | 697 W/m² | - |
* Rain latest hour (hover to see other rain measurements)
** Current wind speed in m/s (hover to see current wind gust speed)